createdAt,value
2017-11-07T00:02:27.304Z,3.20
2017-11-07T00:05:32.589Z,3.20
2017-11-07T00:08:37.324Z,3.20
2017-11-07T00:11:42.932Z,3.30
2017-11-07T00:14:47.880Z,3.30
2017-11-07T00:17:53.247Z,3.40
2017-11-07T00:20:58.589Z,3.40
2017-11-07T00:24:03.503Z,3.50
2017-11-07T00:27:09.132Z,3.60
2017-11-07T00:30:14.571Z,3.60
2017-11-07T00:33:19.991Z,3.70
2017-11-07T00:36:24.869Z,3.70
2017-11-07T00:39:30.535Z,3.70
2017-11-07T00:42:37.094Z,3.70
2017-11-07T00:45:43.180Z,3.80
2017-11-07T00:48:48.072Z,3.70
2017-11-07T00:51:53.033Z,3.80
2017-11-07T00:55:00.294Z,3.80
2017-11-07T00:58:05.980Z,3.80
2017-11-07T01:01:11.656Z,3.80
2017-11-07T01:04:17.364Z,3.90
2017-11-07T01:07:23.290Z,3.90
2017-11-07T01:10:28.734Z,3.90
2017-11-07T01:13:34.244Z,3.90
2017-11-07T01:16:39.859Z,3.90
2017-11-07T01:19:45.297Z,3.90
2017-11-07T01:22:50.887Z,3.90
2017-11-07T01:25:57.076Z,3.80
2017-11-07T01:29:03.619Z,3.70
2017-11-07T01:32:08.956Z,3.70
2017-11-07T01:35:14.005Z,3.70
2017-11-07T01:38:19.140Z,3.60
2017-11-07T01:41:24.938Z,3.60
2017-11-07T01:44:30.576Z,3.50
2017-11-07T01:47:35.648Z,3.50
2017-11-07T01:50:41.512Z,3.50
2017-11-07T01:53:47.300Z,3.50
2017-11-07T01:56:53.743Z,3.50
2017-11-07T01:59:58.757Z,3.50
2017-11-07T02:03:04.488Z,3.50
2017-11-07T02:06:09.940Z,3.50
2017-11-07T02:09:14.624Z,3.40
2017-11-07T02:12:20.292Z,3.50
2017-11-07T02:15:26.129Z,3.60
2017-11-07T02:18:31.325Z,3.60
2017-11-07T02:21:37.092Z,3.70
2017-11-07T02:24:42.135Z,3.70
2017-11-07T02:27:48.040Z,3.70
2017-11-07T02:30:53.472Z,3.70
2017-11-07T02:33:59.144Z,3.70
2017-11-07T02:37:04.528Z,3.70
2017-11-07T02:40:09.667Z,3.70
2017-11-07T02:43:14.742Z,3.70
2017-11-07T02:46:19.668Z,3.70
2017-11-07T02:49:25.257Z,3.80
2017-11-07T02:52:30.817Z,3.70
2017-11-07T02:55:35.893Z,3.80
2017-11-07T02:58:41.443Z,3.80
2017-11-07T03:01:46.473Z,3.80
2017-11-07T03:04:51.854Z,3.80
2017-11-07T03:07:57.180Z,3.80
2017-11-07T03:11:02.564Z,3.80
2017-11-07T03:14:07.831Z,3.80
2017-11-07T03:17:13.168Z,3.80
2017-11-07T03:20:18.354Z,3.90
2017-11-07T03:23:24.129Z,3.80
2017-11-07T03:26:29.516Z,3.90
2017-11-07T03:29:34.824Z,3.80
2017-11-07T03:32:40.247Z,3.80
2017-11-07T03:35:45.660Z,3.80
2017-11-07T03:38:52.133Z,3.90
2017-11-07T03:41:57.760Z,3.90
2017-11-07T03:45:02.981Z,3.90
2017-11-07T03:48:08.409Z,3.90
2017-11-07T03:51:13.859Z,3.90
2017-11-07T03:54:19.450Z,3.90
2017-11-07T03:57:25.241Z,3.90
2017-11-07T04:00:30.605Z,4.00
2017-11-07T04:03:36.083Z,4.00
2017-11-07T04:06:41.308Z,4.00
2017-11-07T04:09:46.478Z,4.00
2017-11-07T04:12:51.831Z,4.00
2017-11-07T04:15:57.260Z,4.00
2017-11-07T04:19:02.361Z,4.10
2017-11-07T04:22:07.905Z,4.10
2017-11-07T04:25:13.667Z,4.10
2017-11-07T04:28:19.824Z,4.10
2017-11-07T04:31:25.863Z,4.10
2017-11-07T04:34:32.465Z,4.10
2017-11-07T04:37:39.110Z,4.10
2017-11-07T04:40:44.971Z,4.10
2017-11-07T04:43:50.040Z,4.10
2017-11-07T04:46:55.012Z,4.10
2017-11-07T04:49:59.930Z,4.10
2017-11-07T04:53:05.651Z,4.00
2017-11-07T04:56:10.835Z,4.00
2017-11-07T04:59:17.186Z,4.00
2017-11-07T05:02:23.028Z,4.00
2017-11-07T05:05:28.575Z,3.90
2017-11-07T05:08:33.890Z,3.90
2017-11-07T05:11:45.152Z,3.90
2017-11-07T05:14:51.544Z,3.90
2017-11-07T05:17:57.796Z,3.90
2017-11-07T05:21:04.165Z,3.80
2017-11-07T05:24:13.872Z,3.80
2017-11-07T05:27:19.033Z,3.80
2017-11-07T05:30:23.956Z,3.80
2017-11-07T05:33:32.209Z,3.80
2017-11-07T05:36:39.630Z,3.80
2017-11-07T05:39:46.203Z,3.80
2017-11-07T05:42:51.652Z,3.90
2017-11-07T05:45:56.595Z,3.90
2017-11-07T05:49:02.301Z,3.90
2017-11-07T05:52:09.576Z,3.90
2017-11-07T05:55:14.716Z,3.90
2017-11-07T05:58:22.700Z,4.00
2017-11-07T06:01:27.689Z,4.00
2017-11-07T06:04:34.106Z,4.00
2017-11-07T06:07:42.411Z,4.00
2017-11-07T06:10:47.703Z,4.10
2017-11-07T06:13:53.220Z,4.10
2017-11-07T06:16:59.781Z,4.10
2017-11-07T06:20:06.946Z,4.10
2017-11-07T06:23:11.836Z,4.20
2017-11-07T06:26:17.860Z,4.20
2017-11-07T06:29:23.032Z,4.10
2017-11-07T06:32:27.956Z,4.20
2017-11-07T06:35:33.652Z,4.20
2017-11-07T06:38:40.149Z,4.20
2017-11-07T06:41:44.964Z,4.30
2017-11-07T06:44:50.235Z,4.30
2017-11-07T06:47:55.599Z,4.40
2017-11-07T06:51:00.679Z,4.50
2017-11-07T06:54:05.968Z,4.50
2017-11-07T06:57:10.928Z,4.50
2017-11-07T07:00:16.572Z,4.60
2017-11-07T07:03:21.995Z,4.60
2017-11-07T07:06:27.243Z,4.60
2017-11-07T07:09:34.012Z,4.60
2017-11-07T07:12:39.418Z,4.60
2017-11-07T07:15:45.004Z,4.60
2017-11-07T07:18:50.584Z,4.60
2017-11-07T07:21:56.236Z,4.70
2017-11-07T07:25:01.795Z,4.70
2017-11-07T07:28:07.359Z,4.70
2017-11-07T07:31:12.496Z,4.80
2017-11-07T07:34:18.192Z,4.80
2017-11-07T07:37:23.159Z,4.90
2017-11-07T07:40:28.988Z,4.90
2017-11-07T07:43:34.369Z,5.00
2017-11-07T07:46:40.385Z,5.00
2017-11-07T07:49:45.879Z,5.00
2017-11-07T07:52:51.451Z,5.20
2017-11-07T07:55:56.729Z,5.20
2017-11-07T07:59:02.409Z,5.30
2017-11-07T08:02:07.665Z,5.30
2017-11-07T08:05:13.676Z,5.30
2017-11-07T08:08:19.135Z,5.30
2017-11-07T08:11:24.935Z,5.30
2017-11-07T08:14:30.452Z,5.30
2017-11-07T08:17:35.215Z,5.40
2017-11-07T08:20:40.495Z,5.30
2017-11-07T08:23:45.932Z,5.20
2017-11-07T08:26:51.044Z,5.20
2017-11-07T08:29:56.308Z,5.20
2017-11-07T08:33:01.712Z,5.10
2017-11-07T08:36:07.852Z,5.10
2017-11-07T08:39:12.995Z,5.10
2017-11-07T08:42:17.864Z,5.20
2017-11-07T08:45:23.084Z,5.10
2017-11-07T08:48:28.199Z,5.10
2017-11-07T08:51:33.522Z,5.20
2017-11-07T08:54:38.779Z,5.20
2017-11-07T08:57:43.753Z,5.20
2017-11-07T09:00:49.377Z,5.30
2017-11-07T09:03:54.376Z,5.40
2017-11-07T09:06:59.204Z,5.40
2017-11-07T09:10:04.387Z,5.50
2017-11-07T09:13:10.632Z,5.50
2017-11-07T09:16:16.396Z,5.60
2017-11-07T09:19:21.144Z,5.60
2017-11-07T09:22:26.880Z,5.60
2017-11-07T09:25:32.181Z,5.60
2017-11-07T09:28:37.624Z,5.70
2017-11-07T09:31:42.916Z,5.70
2017-11-07T09:34:48.288Z,5.70
2017-11-07T09:37:54.389Z,5.90
2017-11-07T09:41:00.146Z,5.90
2017-11-07T09:44:05.608Z,5.90
2017-11-07T09:47:11.040Z,5.80
2017-11-07T09:50:16.827Z,5.90
2017-11-07T09:53:22.500Z,6.00
2017-11-07T09:56:27.338Z,6.10
2017-11-07T09:59:32.884Z,6.20
2017-11-07T10:02:37.711Z,6.30
2017-11-07T10:05:42.804Z,6.40
2017-11-07T10:08:47.867Z,6.40
2017-11-07T10:11:53.596Z,6.40
2017-11-07T10:15:00.017Z,6.30
2017-11-07T10:18:05.496Z,6.40
2017-11-07T10:21:10.848Z,6.40
2017-11-07T10:24:16.263Z,6.40
2017-11-07T10:27:21.196Z,6.50
2017-11-07T10:30:26.904Z,6.40
2017-11-07T10:33:31.805Z,6.40
2017-11-07T10:36:37.250Z,6.30
2017-11-07T10:39:42.072Z,6.30
2017-11-07T10:42:47.689Z,6.20
2017-11-07T10:45:52.713Z,6.20
2017-11-07T10:48:57.840Z,6.30
2017-11-07T10:52:02.864Z,6.40
2017-11-07T10:55:07.947Z,6.40
2017-11-07T10:58:13.481Z,6.40
2017-11-07T11:01:19.103Z,6.50
2017-11-07T11:04:25.260Z,6.60
2017-11-07T11:07:30.977Z,6.60
2017-11-07T11:10:36.111Z,6.70
2017-11-07T11:13:40.976Z,6.80
2017-11-07T11:16:46.552Z,6.80
2017-11-07T11:19:51.312Z,6.90
2017-11-07T11:22:57.132Z,7.00
2017-11-07T11:26:02.980Z,7.10
2017-11-07T11:29:08.700Z,7.10
2017-11-07T11:32:15.291Z,7.30
2017-11-07T11:35:20.322Z,7.30
2017-11-07T11:38:25.692Z,7.40
2017-11-07T11:41:30.824Z,7.40
2017-11-07T11:44:35.828Z,7.40
2017-11-07T11:47:40.595Z,7.50
2017-11-07T11:50:45.476Z,7.50
2017-11-07T11:53:50.747Z,7.50
2017-11-07T11:56:56.256Z,7.50
2017-11-07T12:00:02.061Z,7.70
2017-11-07T12:03:07.504Z,7.70
2017-11-07T12:06:12.687Z,7.60
2017-11-07T12:09:17.828Z,7.40
2017-11-07T12:12:24.487Z,7.50
2017-11-07T12:15:29.721Z,7.50
2017-11-07T12:18:34.653Z,7.70
2017-11-07T12:21:39.716Z,7.80
2017-11-07T12:24:44.843Z,7.70
2017-11-07T12:27:50.520Z,7.80
2017-11-07T12:30:55.905Z,7.80
2017-11-07T12:34:01.782Z,7.80
2017-11-07T12:37:07.345Z,7.80
2017-11-07T12:40:12.297Z,7.70
2017-11-07T12:43:17.336Z,7.70
2017-11-07T12:46:22.579Z,7.70
2017-11-07T12:49:28.744Z,7.90
2017-11-07T12:52:34.305Z,7.90
2017-11-07T12:55:39.625Z,7.90
2017-11-07T12:58:44.409Z,7.90
2017-11-07T13:01:51.124Z,7.90
2017-11-07T13:04:56.692Z,7.80
2017-11-07T13:08:01.580Z,7.90
2017-11-07T13:11:06.596Z,7.90
2017-11-07T13:14:11.559Z,7.90
2017-11-07T13:17:16.648Z,7.90
2017-11-07T13:20:22.380Z,7.90
2017-11-07T13:23:27.388Z,7.80
2017-11-07T13:26:32.315Z,8.00
2017-11-07T13:29:38.300Z,8.00
2017-11-07T13:32:43.755Z,7.90
2017-11-07T13:35:48.643Z,8.00
2017-11-07T13:38:53.931Z,7.90
2017-11-07T13:41:59.104Z,8.00
2017-11-07T13:45:04.208Z,8.10
2017-11-07T13:48:10.236Z,8.00
2017-11-07T13:51:15.632Z,7.90
2017-11-07T13:54:20.672Z,8.00
2017-11-07T13:57:25.997Z,8.00
2017-11-07T14:00:30.932Z,8.00
2017-11-07T14:03:36.815Z,8.00
2017-11-07T14:06:42.372Z,7.90
2017-11-07T14:09:48.012Z,7.90
2017-11-07T14:12:52.839Z,7.80
2017-11-07T14:15:58.044Z,7.80
2017-11-07T14:19:04.564Z,7.80
2017-11-07T14:22:10.173Z,7.80
2017-11-07T14:25:15.436Z,7.80
2017-11-07T14:28:21.222Z,7.80
2017-11-07T14:31:25.975Z,7.80
2017-11-07T14:34:31.264Z,7.80
2017-11-07T14:37:36.107Z,7.80
2017-11-07T14:40:41.748Z,7.80
2017-11-07T14:43:46.987Z,7.80
2017-11-07T14:46:51.976Z,7.80
2017-11-07T14:49:57.164Z,7.70
2017-11-07T14:53:02.520Z,7.80
2017-11-07T14:56:08.381Z,7.70
2017-11-07T14:59:13.488Z,7.70
2017-11-07T15:02:19.379Z,7.70
2017-11-07T15:05:25.004Z,7.70
2017-11-07T15:08:30.258Z,7.70
2017-11-07T15:11:35.009Z,7.70
2017-11-07T15:14:40.556Z,7.70
2017-11-07T15:17:45.220Z,7.70
2017-11-07T15:20:50.831Z,7.70
2017-11-07T15:23:55.596Z,7.70
2017-11-07T15:27:01.045Z,7.70
2017-11-07T15:30:06.117Z,7.70
2017-11-07T15:33:11.800Z,7.70
2017-11-07T15:36:17.517Z,7.70
2017-11-07T15:39:22.520Z,7.70
2017-11-07T15:42:28.064Z,7.70
2017-11-07T15:45:33.669Z,7.80
2017-11-07T15:48:39.236Z,7.80
2017-11-07T15:51:44.871Z,7.80
2017-11-07T15:54:49.788Z,7.80
2017-11-07T15:57:55.824Z,7.80
2017-11-07T16:01:02.505Z,7.80
2017-11-07T16:04:08.112Z,7.80
2017-11-07T16:07:13.381Z,7.80
2017-11-07T16:10:18.251Z,7.70
2017-11-07T16:13:23.200Z,7.80
2017-11-07T16:16:28.156Z,7.80
2017-11-07T16:19:33.476Z,7.80
2017-11-07T16:22:39.592Z,7.80
2017-11-07T16:25:45.117Z,7.80
2017-11-07T16:28:50.508Z,7.80
2017-11-07T16:31:55.590Z,7.70
2017-11-07T16:35:01.268Z,7.80
2017-11-07T16:38:07.011Z,7.70
2017-11-07T16:41:13.098Z,7.80
2017-11-07T16:44:18.339Z,7.80
2017-11-07T16:47:24.276Z,7.80
2017-11-07T16:50:29.494Z,7.80
2017-11-07T16:53:34.441Z,7.80
2017-11-07T16:56:40.995Z,7.80
2017-11-07T16:59:45.951Z,7.80
2017-11-07T17:02:52.020Z,7.80
2017-11-07T17:05:57.344Z,7.80
2017-11-07T17:09:02.392Z,7.70
2017-11-07T17:12:07.967Z,7.70
2017-11-07T17:15:13.588Z,7.60
2017-11-07T17:18:18.940Z,7.50
2017-11-07T17:21:23.935Z,7.50
2017-11-07T17:24:29.925Z,7.50
2017-11-07T17:27:35.041Z,7.50
2017-11-07T17:30:40.236Z,7.50
2017-11-07T17:33:45.732Z,7.40
2017-11-07T17:36:51.108Z,7.40
2017-11-07T17:39:57.104Z,7.40
2017-11-07T17:43:03.336Z,7.40
2017-11-07T17:46:09.155Z,7.40
2017-11-07T17:49:14.572Z,7.40
2017-11-07T17:52:19.557Z,7.50
2017-11-07T17:55:25.554Z,7.50
2017-11-07T17:58:31.312Z,7.50
2017-11-07T18:01:36.475Z,7.60
2017-11-07T18:04:41.470Z,7.60
2017-11-07T18:07:48.900Z,7.60
2017-11-07T18:10:54.849Z,7.60
2017-11-07T18:14:00.592Z,7.60
2017-11-07T18:17:06.132Z,7.50
2017-11-07T18:20:11.741Z,7.50
2017-11-07T18:23:16.637Z,7.50
2017-11-07T18:26:22.404Z,7.50
2017-11-07T18:29:28.040Z,7.50
2017-11-07T18:32:32.924Z,7.50
2017-11-07T18:35:39.029Z,7.50
2017-11-07T18:38:44.141Z,7.50
2017-11-07T18:41:49.433Z,7.50
2017-11-07T18:44:54.976Z,7.60
2017-11-07T18:48:00.739Z,7.60
2017-11-07T18:51:06.148Z,7.60
2017-11-07T18:54:11.452Z,7.60
2017-11-07T18:57:16.731Z,7.60
2017-11-07T19:00:22.645Z,7.60
2017-11-07T19:03:28.040Z,7.60
2017-11-07T19:06:33.352Z,7.60
2017-11-07T19:09:39.103Z,7.60
2017-11-07T19:12:44.908Z,7.60
2017-11-07T19:15:50.277Z,7.50
2017-11-07T19:18:55.031Z,7.50
2017-11-07T19:22:00.670Z,7.50
2017-11-07T19:25:06.540Z,7.50
2017-11-07T19:28:12.913Z,7.50
2017-11-07T19:31:18.776Z,7.40
2017-11-07T19:34:24.938Z,7.30
2017-11-07T19:37:30.600Z,7.30
2017-11-07T19:40:36.005Z,7.30
2017-11-07T19:43:41.880Z,7.30
2017-11-07T19:46:48.175Z,7.30
2017-11-07T19:49:53.470Z,7.30
2017-11-07T19:52:58.572Z,7.30
2017-11-07T19:56:05.512Z,7.30
2017-11-07T19:59:10.315Z,7.30
2017-11-07T20:02:15.782Z,7.30
2017-11-07T20:05:21.439Z,7.30
2017-11-07T20:08:26.419Z,7.30
2017-11-07T20:11:32.009Z,7.20
2017-11-07T20:14:37.628Z,7.20
2017-11-07T20:17:42.591Z,7.10
2017-11-07T20:20:47.964Z,7.10
2017-11-07T20:23:53.312Z,7.10
2017-11-07T20:26:58.571Z,7.10
2017-11-07T20:30:03.992Z,7.10
2017-11-07T20:33:09.276Z,7.00
2017-11-07T20:36:15.142Z,7.00
2017-11-07T20:39:20.572Z,7.00
2017-11-07T20:42:25.524Z,7.00
2017-11-07T20:45:30.976Z,7.00
2017-11-07T20:48:36.370Z,7.00
2017-11-07T20:51:41.356Z,7.00
2017-11-07T20:54:47.102Z,7.00
2017-11-07T20:57:52.092Z,7.10
2017-11-07T21:00:57.778Z,7.10
2017-11-07T21:04:03.228Z,7.10
2017-11-07T21:07:08.478Z,7.10
2017-11-07T21:10:13.795Z,7.10
2017-11-07T21:13:19.532Z,7.00
2017-11-07T21:16:25.000Z,7.00
2017-11-07T21:19:29.897Z,7.00
2017-11-07T21:22:35.652Z,7.00
2017-11-07T21:25:41.436Z,7.00
2017-11-07T21:28:46.209Z,7.00
2017-11-07T21:31:51.679Z,7.00
2017-11-07T21:34:57.376Z,7.00
2017-11-07T21:38:02.532Z,7.00
2017-11-07T21:41:07.921Z,7.00
2017-11-07T21:44:13.571Z,7.00
2017-11-07T21:47:18.588Z,7.00
2017-11-07T21:50:33.033Z,7.00
2017-11-07T21:53:38.016Z,7.00
2017-11-07T21:56:42.895Z,7.10
2017-11-07T21:59:47.704Z,7.10
2017-11-07T22:02:52.765Z,7.10
2017-11-07T22:05:59.245Z,7.10
2017-11-07T22:09:04.248Z,7.10
2017-11-07T22:12:10.069Z,7.10
2017-11-07T22:15:15.340Z,7.10
2017-11-07T22:18:20.076Z,7.10
2017-11-07T22:21:26.335Z,7.10
2017-11-07T22:24:31.712Z,7.10
2017-11-07T22:27:36.972Z,7.10
2017-11-07T22:30:42.135Z,7.10
2017-11-07T22:33:47.780Z,7.00
2017-11-07T22:36:53.508Z,7.00
2017-11-07T22:39:58.276Z,7.00
2017-11-07T22:43:03.812Z,7.00
2017-11-07T22:46:09.358Z,7.00
2017-11-07T22:49:14.313Z,7.00
2017-11-07T22:52:19.566Z,7.00
2017-11-07T22:55:25.766Z,7.10
2017-11-07T22:58:30.738Z,7.00
2017-11-07T23:01:35.520Z,7.10
2017-11-07T23:04:40.607Z,7.10
2017-11-07T23:07:46.740Z,7.00
2017-11-07T23:10:51.815Z,7.10
2017-11-07T23:13:58.061Z,7.10
2017-11-07T23:17:03.680Z,7.10
2017-11-07T23:20:10.112Z,7.10
2017-11-07T23:23:15.875Z,7.10
2017-11-07T23:26:21.540Z,7.10
2017-11-07T23:29:27.280Z,7.10
2017-11-07T23:32:32.944Z,7.10
2017-11-07T23:35:38.280Z,7.10
2017-11-07T23:38:43.640Z,7.20
2017-11-07T23:41:49.512Z,7.10
2017-11-07T23:44:55.101Z,7.10
2017-11-07T23:48:00.108Z,7.10
2017-11-07T23:51:09.344Z,7.10
2017-11-07T23:54:15.280Z,7.00
2017-11-07T23:57:20.324Z,7.00
